sensor_id;sensor_type;location;lat;lon;timestamp;pressure;altitude;pressure_sealevel;temperature;humidity
56681;BME280;42558;52.388;13.390;2023-01-28T00:01:16;102238.88;;;-1.93;98.72
56681;BME280;42558;52.388;13.390;2023-01-28T00:03:49;102236.98;;;-1.94;98.82
56681;BME280;42558;52.388;13.390;2023-01-28T00:06:20;102240.21;;;-1.97;99.35
56681;BME280;42558;52.388;13.390;2023-01-28T00:08:50;102241.48;;;-2.00;99.40
56681;BME280;42558;52.388;13.390;2023-01-28T00:11:20;102243.36;;;-2.00;99.54
56681;BME280;42558;52.388;13.390;2023-01-28T00:13:53;102241.86;;;-2.02;99.82
56681;BME280;42558;52.388;13.390;2023-01-28T00:16:23;102238.05;;;-2.06;99.97
56681;BME280;42558;52.388;13.390;2023-01-28T00:18:55;102236.42;;;-2.11;100.00
56681;BME280;42558;52.388;13.390;2023-01-28T00:21:25;102236.86;;;-2.17;100.00
56681;BME280;42558;52.388;13.390;2023-01-28T00:23:55;102237.73;;;-2.25;100.00
56681;BME280;42558;52.388;13.390;2023-01-28T00:26:25;102241.45;;;-2.33;100.00
56681;BME280;42558;52.388;13.390;2023-01-28T00:28:55;102242.99;;;-2.41;100.00
56681;BME280;42558;52.388;13.390;2023-01-28T00:31:26;102246.80;;;-2.45;100.00
56681;BME280;42558;52.388;13.390;2023-01-28T00:33:57;102246.95;;;-2.51;100.00
56681;BME280;42558;52.388;13.390;2023-01-28T00:36:26;102248.83;;;-2.57;100.00
56681;BME280;42558;52.388;13.390;2023-01-28T00:38:58;102251.79;;;-2.62;100.00
56681;BME280;42558;52.388;13.390;2023-01-28T00:41:29;102256.42;;;-2.68;100.00
56681;BME280;42558;52.388;13.390;2023-01-28T00:43:58;102256.04;;;-2.76;100.00
56681;BME280;42558;52.388;13.390;2023-01-28T00:46:28;102254.17;;;-2.78;100.00
56681;BME280;42558;52.388;13.390;2023-01-28T00:48:58;102253.27;;;-2.75;100.00
56681;BME280;42558;52.388;13.390;2023-01-28T00:51:28;102259.08;;;-2.75;100.00
56681;BME280;42558;52.388;13.390;2023-01-28T00:53:58;102257.14;;;-2.77;100.00
56681;BME280;42558;52.388;13.390;2023-01-28T00:56:28;102257.53;;;-2.84;100.00
56681;BME280;42558;52.388;13.390;2023-01-28T00:58:58;102263.97;;;-2.91;100.00
56681;BME280;42558;52.388;13.390;2023-01-28T01:01:28;102264.98;;;-2.91;100.00
56681;BME280;42558;52.388;13.390;2023-01-28T01:03:58;102270.04;;;-2.90;100.00
56681;BME280;42558;52.388;13.390;2023-01-28T01:06:36;102267.45;;;-2.94;100.00
56681;BME280;42558;52.388;13.390;2023-01-28T01:09:10;102267.27;;;-2.96;100.00
56681;BME280;42558;52.388;13.390;2023-01-28T01:11:40;102270.27;;;-2.97;100.00
56681;BME280;42558;52.388;13.390;2023-01-28T01:14:10;102271.81;;;-2.97;100.00
56681;BME280;42558;52.388;13.390;2023-01-28T01:16:40;102265.41;;;-3.00;100.00
56681;BME280;42558;52.388;13.390;2023-01-28T01:19:10;102264.88;;;-3.02;100.00
56681;BME280;42558;52.388;13.390;2023-01-28T01:21:39;102266.38;;;-3.00;100.00
56681;BME280;42558;52.388;13.390;2023-01-28T01:24:09;102261.16;;;-3.03;100.00
56681;BME280;42558;52.388;13.390;2023-01-28T01:26:39;102260.85;;;-3.05;100.00
56681;BME280;42558;52.388;13.390;2023-01-28T01:29:07;102265.55;;;-3.06;100.00
56681;BME280;42558;52.388;13.390;2023-01-28T01:31:36;102261.09;;;-3.10;100.00
56681;BME280;42558;52.388;13.390;2023-01-28T01:34:04;102257.73;;;-3.10;100.00
56681;BME280;42558;52.388;13.390;2023-01-28T01:36:33;102260.05;;;-3.11;100.00
56681;BME280;42558;52.388;13.390;2023-01-28T01:39:01;102259.88;;;-3.13;100.00
56681;BME280;42558;52.388;13.390;2023-01-28T01:41:31;102264.81;;;-3.19;100.00
56681;BME280;42558;52.388;13.390;2023-01-28T01:44:04;102266.73;;;-3.23;100.00
56681;BME280;42558;52.388;13.390;2023-01-28T01:46:49;102272.11;;;-3.26;100.00
56681;BME280;42558;52.388;13.390;2023-01-28T01:49:24;102272.74;;;-3.28;100.00
56681;BME280;42558;52.388;13.390;2023-01-28T01:52:16;102276.06;;;-3.30;100.00
56681;BME280;42558;52.388;13.390;2023-01-28T01:54:53;102277.29;;;-3.26;100.00
56681;BME280;42558;52.388;13.390;2023-01-28T01:57:33;102282.67;;;-3.21;100.00
56681;BME280;42558;52.388;13.390;2023-01-28T02:00:06;102284.94;;;-3.19;100.00
56681;BME280;42558;52.388;13.390;2023-01-28T02:02:41;102285.52;;;-3.17;100.00
56681;BME280;42558;52.388;13.390;2023-01-28T02:05:17;102281.15;;;-3.12;100.00
56681;BME280;42558;52.388;13.390;2023-01-28T02:07:52;102284.35;;;-3.05;100.00
56681;BME280;42558;52.388;13.390;2023-01-28T02:10:44;102285.61;;;-2.99;100.00
56681;BME280;42558;52.388;13.390;2023-01-28T02:13:18;102284.89;;;-2.92;100.00
56681;BME280;42558;52.388;13.390;2023-01-28T02:15:51;102287.81;;;-2.84;100.00
56681;BME280;42558;52.388;13.390;2023-01-28T02:18:22;102290.17;;;-2.81;100.00
56681;BME280;42558;52.388;13.390;2023-01-28T02:30:24;102282.25;;;-2.59;100.00
56681;BME280;42558;52.388;13.390;2023-01-28T02:33:09;102279.14;;;-2.53;100.00
56681;BME280;42558;52.388;13.390;2023-01-28T02:35:49;102279.95;;;-2.50;100.00
56681;BME280;42558;52.388;13.390;2023-01-28T02:38:38;102281.27;;;-2.47;100.00
56681;BME280;42558;52.388;13.390;2023-01-28T02:41:20;102280.56;;;-2.45;100.00
56681;BME280;42558;52.388;13.390;2023-01-28T02:43:52;102278.48;;;-2.41;100.00
56681;BME280;42558;52.388;13.390;2023-01-28T02:49:19;102282.27;;;-2.33;100.00
56681;BME280;42558;52.388;13.390;2023-01-28T02:52:31;102280.61;;;-2.29;100.00
56681;BME280;42558;52.388;13.390;2023-01-28T03:01:35;102281.69;;;-2.17;100.00
56681;BME280;42558;52.388;13.390;2023-01-28T03:04:29;102282.92;;;-2.15;100.00
56681;BME280;42558;52.388;13.390;2023-01-28T03:07:04;102289.52;;;-2.06;100.00
56681;BME280;42558;52.388;13.390;2023-01-28T03:09:39;102287.41;;;-2.05;100.00
56681;BME280;42558;52.388;13.390;2023-01-28T03:12:31;102286.91;;;-2.01;100.00
56681;BME280;42558;52.388;13.390;2023-01-28T03:15:42;102284.72;;;-1.93;100.00
56681;BME280;42558;52.388;13.390;2023-01-28T03:18:50;102285.86;;;-1.83;100.00
56681;BME280;42558;52.388;13.390;2023-01-28T03:21:42;102287.84;;;-1.69;100.00
56681;BME280;42558;52.388;13.390;2023-01-28T03:24:47;102286.20;;;-1.54;100.00
56681;BME280;42558;52.388;13.390;2023-01-28T03:28:03;102283.71;;;-1.55;100.00
56681;BME280;42558;52.388;13.390;2023-01-28T03:31:06;102284.61;;;-1.48;100.00
56681;BME280;42558;52.388;13.390;2023-01-28T03:33:57;102284.61;;;-1.46;100.00
56681;BME280;42558;52.388;13.390;2023-01-28T03:36:47;102287.98;;;-1.49;100.00
56681;BME280;42558;52.388;13.390;2023-01-28T03:39:26;102286.49;;;-1.56;100.00
56681;BME280;42558;52.388;13.390;2023-01-28T03:42:08;102287.05;;;-1.54;100.00
56681;BME280;42558;52.388;13.390;2023-01-28T03:44:42;102283.90;;;-1.47;100.00
56681;BME280;42558;52.388;13.390;2023-01-28T03:47:29;102281.40;;;-1.42;100.00
56681;BME280;42558;52.388;13.390;2023-01-28T03:49:59;102280.86;;;-1.46;100.00
56681;BME280;42558;52.388;13.390;2023-01-28T03:52:30;102280.78;;;-1.43;100.00
56681;BME280;42558;52.388;13.390;2023-01-28T03:55:00;102281.10;;;-1.35;100.00
56681;BME280;42558;52.388;13.390;2023-01-28T03:57:42;102281.75;;;-1.33;100.00
56681;BME280;42558;52.388;13.390;2023-01-28T04:00:14;102282.88;;;-1.32;100.00
56681;BME280;42558;52.388;13.390;2023-01-28T04:02:45;102282.21;;;-1.36;100.00
56681;BME280;42558;52.388;13.390;2023-01-28T04:05:15;102280.83;;;-1.30;100.00
56681;BME280;42558;52.388;13.390;2023-01-28T04:07:48;102281.65;;;-1.26;100.00
56681;BME280;42558;52.388;13.390;2023-01-28T04:10:21;102286.76;;;-1.25;100.00
56681;BME280;42558;52.388;13.390;2023-01-28T04:12:50;102282.69;;;-1.37;100.00
56681;BME280;42558;52.388;13.390;2023-01-28T04:15:22;102280.16;;;-1.36;100.00
56681;BME280;42558;52.388;13.390;2023-01-28T04:17:52;102277.13;;;-1.33;100.00
56681;BME280;42558;52.388;13.390;2023-01-28T04:20:22;102277.89;;;-1.38;100.00
56681;BME280;42558;52.388;13.390;2023-01-28T04:22:52;102285.08;;;-1.39;99.99
56681;BME280;42558;52.388;13.390;2023-01-28T04:25:22;102286.11;;;-1.33;99.78
56681;BME280;42558;52.388;13.390;2023-01-28T04:27:52;102282.72;;;-1.32;98.81
56681;BME280;42558;52.388;13.390;2023-01-28T04:30:23;102290.99;;;-1.34;97.96
56681;BME280;42558;52.388;13.390;2023-01-28T04:32:53;102289.08;;;-1.37;96.18
56681;BME280;42558;52.388;13.390;2023-01-28T04:35:23;102295.84;;;-1.30;95.27
56681;BME280;42558;52.388;13.390;2023-01-28T04:37:53;102297.65;;;-1.31;95.16
56681;BME280;42558;52.388;13.390;2023-01-28T04:40:23;102298.96;;;-1.28;95.13
56681;BME280;42558;52.388;13.390;2023-01-28T04:42:54;102299.32;;;-1.27;94.10
56681;BME280;42558;52.388;13.390;2023-01-28T04:45:25;102300.49;;;-1.28;93.44
56681;BME280;42558;52.388;13.390;2023-01-28T04:47:54;102302.86;;;-1.28;92.71
56681;BME280;42558;52.388;13.390;2023-01-28T04:50:24;102299.35;;;-1.27;91.84
56681;BME280;42558;52.388;13.390;2023-01-28T04:52:54;102297.52;;;-1.20;90.54
56681;BME280;42558;52.388;13.390;2023-01-28T04:55:24;102297.21;;;-1.14;89.30
56681;BME280;42558;52.388;13.390;2023-01-28T04:57:53;102297.17;;;-1.10;88.93
56681;BME280;42558;52.388;13.390;2023-01-28T05:00:21;102295.67;;;-1.18;87.33
56681;BME280;42558;52.388;13.390;2023-01-28T05:02:50;102299.41;;;-1.14;85.86
56681;BME280;42558;52.388;13.390;2023-01-28T05:05:18;102295.48;;;-1.14;85.62
56681;BME280;42558;52.388;13.390;2023-01-28T05:07:52;102297.52;;;-1.19;85.90
56681;BME280;42558;52.388;13.390;2023-01-28T05:10:24;102296.49;;;-1.16;86.20
56681;BME280;42558;52.388;13.390;2023-01-28T05:12:54;102303.27;;;-1.14;85.10
56681;BME280;42558;52.388;13.390;2023-01-28T05:15:24;102307.24;;;-1.10;85.44
56681;BME280;42558;52.388;13.390;2023-01-28T05:17:54;102315.36;;;-1.09;85.36
56681;BME280;42558;52.388;13.390;2023-01-28T05:20:25;102315.11;;;-1.04;85.81
56681;BME280;42558;52.388;13.390;2023-01-28T05:22:53;102318.42;;;-1.00;85.06
56681;BME280;42558;52.388;13.390;2023-01-28T05:25:22;102318.70;;;-0.91;84.26
56681;BME280;42558;52.388;13.390;2023-01-28T05:27:51;102322.36;;;-0.90;83.52
56681;BME280;42558;52.388;13.390;2023-01-28T05:30:20;102325.17;;;-0.96;83.75
56681;BME280;42558;52.388;13.390;2023-01-28T05:32:47;102324.67;;;-0.98;83.47
56681;BME280;42558;52.388;13.390;2023-01-28T05:35:16;102325.31;;;-0.96;83.61
56681;BME280;42558;52.388;13.390;2023-01-28T05:37:44;102329.66;;;-0.98;83.94
56681;BME280;42558;52.388;13.390;2023-01-28T05:40:13;102326.34;;;-1.02;83.60
56681;BME280;42558;52.388;13.390;2023-01-28T05:42:41;102324.38;;;-1.03;83.68
56681;BME280;42558;52.388;13.390;2023-01-28T05:45:10;102324.58;;;-1.13;84.69
56681;BME280;42558;52.388;13.390;2023-01-28T05:47:38;102320.96;;;-1.13;84.66
56681;BME280;42558;52.388;13.390;2023-01-28T05:50:08;102316.73;;;-1.08;84.31
56681;BME280;42558;52.388;13.390;2023-01-28T05:52:38;102317.73;;;-0.98;83.79
56681;BME280;42558;52.388;13.390;2023-01-28T05:55:07;102317.23;;;-0.94;83.83
56681;BME280;42558;52.388;13.390;2023-01-28T05:57:35;102320.87;;;-0.98;84.28
56681;BME280;42558;52.388;13.390;2023-01-28T06:00:04;102323.22;;;-1.05;85.02
56681;BME280;42558;52.388;13.390;2023-01-28T06:02:31;102326.75;;;-1.06;85.41
56681;BME280;42558;52.388;13.390;2023-01-28T06:05:00;102324.45;;;-1.02;86.25
56681;BME280;42558;52.388;13.390;2023-01-28T06:07:28;102324.76;;;-0.99;86.42
56681;BME280;42558;52.388;13.390;2023-01-28T06:09:57;102324.05;;;-1.01;87.04
56681;BME280;42558;52.388;13.390;2023-01-28T06:12:25;102323.19;;;-1.05;87.94
56681;BME280;42558;52.388;13.390;2023-01-28T06:14:54;102324.77;;;-1.04;87.84
56681;BME280;42558;52.388;13.390;2023-01-28T06:17:22;102322.39;;;-1.04;87.66
56681;BME280;42558;52.388;13.390;2023-01-28T06:19:50;102327.54;;;-1.00;87.90
56681;BME280;42558;52.388;13.390;2023-01-28T06:22:19;102330.05;;;-1.09;88.16
56681;BME280;42558;52.388;13.390;2023-01-28T06:24:47;102325.53;;;-1.14;88.93
56681;BME280;42558;52.388;13.390;2023-01-28T06:27:16;102330.14;;;-1.08;89.66
56681;BME280;42558;52.388;13.390;2023-01-28T06:29:44;102331.61;;;-1.07;90.19
56681;BME280;42558;52.388;13.390;2023-01-28T06:32:13;102324.63;;;-1.16;89.17
56681;BME280;42558;52.388;13.390;2023-01-28T06:34:41;102330.84;;;-1.20;89.64
56681;BME280;42558;52.388;13.390;2023-01-28T06:37:14;102337.45;;;-1.21;90.61
56681;BME280;42558;52.388;13.390;2023-01-28T06:39:44;102334.92;;;-1.21;90.84
56681;BME280;42558;52.388;13.390;2023-01-28T06:42:14;102328.77;;;-1.16;91.07
56681;BME280;42558;52.388;13.390;2023-01-28T06:44:44;102332.92;;;-1.06;91.26
56681;BME280;42558;52.388;13.390;2023-01-28T06:47:14;102338.39;;;-1.01;90.91
56681;BME280;42558;52.388;13.390;2023-01-28T06:49:44;102340.35;;;-1.08;90.98
56681;BME280;42558;52.388;13.390;2023-01-28T06:52:14;102340.77;;;-1.05;91.24
56681;BME280;42558;52.388;13.390;2023-01-28T06:54:44;102334.52;;;-0.94;91.44
56681;BME280;42558;52.388;13.390;2023-01-28T06:57:14;102341.14;;;-1.03;90.13
56681;BME280;42558;52.388;13.390;2023-01-28T06:59:43;102338.63;;;-1.02;91.16
56681;BME280;42558;52.388;13.390;2023-01-28T07:02:13;102340.65;;;-0.98;91.15
56681;BME280;42558;52.388;13.390;2023-01-28T07:04:43;102344.34;;;-1.02;91.34
56681;BME280;42558;52.388;13.390;2023-01-28T07:07:13;102340.13;;;-1.12;91.34
56681;BME280;42558;52.388;13.390;2023-01-28T07:09:43;102341.23;;;-1.16;90.83
56681;BME280;42558;52.388;13.390;2023-01-28T07:12:14;102343.58;;;-1.17;91.53
56681;BME280;42558;52.388;13.390;2023-01-28T07:14:44;102344.66;;;-1.12;89.67
56681;BME280;42558;52.388;13.390;2023-01-28T07:17:14;102341.39;;;-1.04;87.46
56681;BME280;42558;52.388;13.390;2023-01-28T07:19:44;102343.52;;;-0.99;87.14
56681;BME280;42558;52.388;13.390;2023-01-28T07:22:13;102344.06;;;-0.85;85.26
56681;BME280;42558;52.388;13.390;2023-01-28T07:24:43;102347.97;;;-0.75;84.72
56681;BME280;42558;52.388;13.390;2023-01-28T07:27:14;102352.28;;;-0.71;84.07
56681;BME280;42558;52.388;13.390;2023-01-28T07:29:43;102349.45;;;-0.72;83.17
56681;BME280;42558;52.388;13.390;2023-01-28T07:32:13;102350.66;;;-0.68;82.64
56681;BME280;42558;52.388;13.390;2023-01-28T07:34:43;102350.23;;;-0.67;81.75
56681;BME280;42558;52.388;13.390;2023-01-28T07:37:14;102347.50;;;-0.68;82.19
56681;BME280;42558;52.388;13.390;2023-01-28T07:39:44;102343.70;;;-0.66;80.93
56681;BME280;42558;52.388;13.390;2023-01-28T07:42:14;102346.10;;;-0.64;81.34
56681;BME280;42558;52.388;13.390;2023-01-28T07:44:43;102346.69;;;-0.62;80.83
56681;BME280;42558;52.388;13.390;2023-01-28T07:47:13;102345.67;;;-0.63;80.78
56681;BME280;42558;52.388;13.390;2023-01-28T07:49:44;102348.52;;;-0.69;81.79
56681;BME280;42558;52.388;13.390;2023-01-28T07:52:12;102344.13;;;-0.69;82.02
56681;BME280;42558;52.388;13.390;2023-01-28T07:54:40;102348.23;;;-0.64;82.30
56681;BME280;42558;52.388;13.390;2023-01-28T07:57:09;102351.16;;;-0.56;82.11
56681;BME280;42558;52.388;13.390;2023-01-28T07:59:37;102352.95;;;-0.49;81.57
56681;BME280;42558;52.388;13.390;2023-01-28T08:02:10;102353.10;;;-0.47;82.19
56681;BME280;42558;52.388;13.390;2023-01-28T08:04:42;102351.62;;;-0.40;81.79
56681;BME280;42558;52.388;13.390;2023-01-28T08:07:12;102348.15;;;-0.40;81.47
56681;BME280;42558;52.388;13.390;2023-01-28T08:09:42;102350.38;;;-0.37;82.17
56681;BME280;42558;52.388;13.390;2023-01-28T08:12:14;102350.05;;;-0.30;82.07
56681;BME280;42558;52.388;13.390;2023-01-28T08:14:48;102350.87;;;-0.28;81.64
56681;BME280;42558;52.388;13.390;2023-01-28T08:17:17;102351.63;;;-0.25;81.10
56681;BME280;42558;52.388;13.390;2023-01-28T08:19:47;102355.53;;;-0.24;81.35
56681;BME280;42558;52.388;13.390;2023-01-28T08:22:18;102358.19;;;-0.21;80.65
56681;BME280;42558;52.388;13.390;2023-01-28T08:24:47;102362.85;;;-0.21;80.23
56681;BME280;42558;52.388;13.390;2023-01-28T08:27:17;102371.42;;;-0.24;80.60
56681;BME280;42558;52.388;13.390;2023-01-28T08:29:47;102371.44;;;-0.26;81.45
56681;BME280;42558;52.388;13.390;2023-01-28T08:32:17;102373.45;;;-0.27;81.81
56681;BME280;42558;52.388;13.390;2023-01-28T08:34:47;102375.02;;;-0.27;82.10
56681;BME280;42558;52.388;13.390;2023-01-28T08:37:17;102378.18;;;-0.26;82.21
56681;BME280;42558;52.388;13.390;2023-01-28T08:39:46;102381.27;;;-0.20;80.07
56681;BME280;42558;52.388;13.390;2023-01-28T08:42:17;102379.23;;;-0.13;77.99
56681;BME280;42558;52.388;13.390;2023-01-28T08:44:46;102382.80;;;-0.14;76.65
56681;BME280;42558;52.388;13.390;2023-01-28T08:47:16;102387.19;;;-0.11;76.67
56681;BME280;42558;52.388;13.390;2023-01-28T08:49:46;102389.19;;;-0.06;75.35
56681;BME280;42558;52.388;13.390;2023-01-28T08:52:16;102391.02;;;-0.09;76.20
56681;BME280;42558;52.388;13.390;2023-01-28T08:54:46;102392.39;;;-0.07;77.00
56681;BME280;42558;52.388;13.390;2023-01-28T08:57:16;102391.48;;;-0.05;76.83
56681;BME280;42558;52.388;13.390;2023-01-28T08:59:46;102385.30;;;-0.11;76.46
56681;BME280;42558;52.388;13.390;2023-01-28T09:02:16;102392.70;;;-0.09;77.27
56681;BME280;42558;52.388;13.390;2023-01-28T09:04:59;102400.66;;;-0.09;77.32
56681;BME280;42558;52.388;13.390;2023-01-28T09:07:30;102398.73;;;-0.05;77.01
56681;BME280;42558;52.388;13.390;2023-01-28T09:10:00;102408.34;;;-0.04;76.78
56681;BME280;42558;52.388;13.390;2023-01-28T09:12:30;102408.81;;;-0.07;77.70
56681;BME280;42558;52.388;13.390;2023-01-28T09:15:00;102409.01;;;-0.09;77.38
56681;BME280;42558;52.388;13.390;2023-01-28T09:17:30;102415.38;;;-0.09;77.41
56681;BME280;42558;52.388;13.390;2023-01-28T09:20:00;102415.05;;;-0.07;77.88
56681;BME280;42558;52.388;13.390;2023-01-28T09:22:29;102413.55;;;-0.10;76.77
56681;BME280;42558;52.388;13.390;2023-01-28T09:24:57;102417.67;;;-0.14;74.15
56681;BME280;42558;52.388;13.390;2023-01-28T09:27:25;102427.84;;;-0.11;73.92
56681;BME280;42558;52.388;13.390;2023-01-28T09:29:54;102431.20;;;-0.02;74.50
56681;BME280;42558;52.388;13.390;2023-01-28T09:32:22;102429.31;;;0.07;74.45
56681;BME280;42558;52.388;13.390;2023-01-28T09:34:51;102430.17;;;0.11;74.20
56681;BME280;42558;52.388;13.390;2023-01-28T09:37:19;102435.56;;;0.05;73.85
56681;BME280;42558;52.388;13.390;2023-01-28T09:39:49;102431.86;;;0.13;73.66
56681;BME280;42558;52.388;13.390;2023-01-28T09:45:28;102425.52;;;0.17;72.63
56681;BME280;42558;52.388;13.390;2023-01-28T09:48:02;102420.06;;;0.25;72.28
56681;BME280;42558;52.388;13.390;2023-01-28T09:50:40;102414.73;;;0.32;73.09
56681;BME280;42558;52.388;13.390;2023-01-28T09:53:25;102416.77;;;0.35;72.46
56681;BME280;42558;52.388;13.390;2023-01-28T09:56:30;102423.08;;;0.40;71.87
56681;BME280;42558;52.388;13.390;2023-01-28T09:59:33;102425.02;;;0.37;71.44
56681;BME280;42558;52.388;13.390;2023-01-28T10:05:26;102429.23;;;0.29;72.11
56681;BME280;42558;52.388;13.390;2023-01-28T10:14:36;102427.55;;;0.40;71.78
56681;BME280;42558;52.388;13.390;2023-01-28T10:17:23;102424.95;;;0.47;72.34
56681;BME280;42558;52.388;13.390;2023-01-28T10:20:05;102420.00;;;0.41;71.50
56681;BME280;42558;52.388;13.390;2023-01-28T10:25:32;102422.70;;;0.47;70.44
56681;BME280;42558;52.388;13.390;2023-01-28T10:28:01;102410.89;;;0.48;70.34
56681;BME280;42558;52.388;13.390;2023-01-28T10:30:34;102413.66;;;0.48;69.85
56681;BME280;42558;52.388;13.390;2023-01-28T10:33:22;102414.33;;;0.41;69.90
56681;BME280;42558;52.388;13.390;2023-01-28T10:35:58;102412.32;;;0.38;70.26
56681;BME280;42558;52.388;13.390;2023-01-28T10:38:30;102410.17;;;0.41;69.68
56681;BME280;42558;52.388;13.390;2023-01-28T10:41:03;102407.30;;;0.44;70.55
56681;BME280;42558;52.388;13.390;2023-01-28T10:43:37;102406.20;;;0.42;70.75
56681;BME280;42558;52.388;13.390;2023-01-28T10:46:16;102398.69;;;0.43;70.08
56681;BME280;42558;52.388;13.390;2023-01-28T10:51:43;102404.01;;;0.49;70.10
56681;BME280;42558;52.388;13.390;2023-01-28T10:54:27;102394.70;;;0.51;69.89
56681;BME280;42558;52.388;13.390;2023-01-28T10:57:03;102396.98;;;0.52;70.02
56681;BME280;42558;52.388;13.390;2023-01-28T10:59:35;102399.86;;;0.49;69.43
56681;BME280;42558;52.388;13.390;2023-01-28T11:02:32;102407.05;;;0.52;68.99
56681;BME280;42558;52.388;13.390;2023-01-28T11:05:22;102401.27;;;0.49;70.33
56681;BME280;42558;52.388;13.390;2023-01-28T11:08:13;102400.77;;;0.51;70.47
56681;BME280;42558;52.388;13.390;2023-01-28T11:10:46;102401.77;;;0.53;71.44
56681;BME280;42558;52.388;13.390;2023-01-28T11:13:28;102405.17;;;0.63;71.67
56681;BME280;42558;52.388;13.390;2023-01-28T11:16:20;102400.09;;;0.69;71.85
56681;BME280;42558;52.388;13.390;2023-01-28T11:18:57;102399.48;;;0.68;70.59
56681;BME280;42558;52.388;13.390;2023-01-28T11:21:33;102398.10;;;0.57;69.55
56681;BME280;42558;52.388;13.390;2023-01-28T11:24:22;102397.27;;;0.66;70.27
56681;BME280;42558;52.388;13.390;2023-01-28T11:26:55;102395.75;;;0.51;70.30
56681;BME280;42558;52.388;13.390;2023-01-28T11:29:32;102399.44;;;0.48;70.93
56681;BME280;42558;52.388;13.390;2023-01-28T11:32:03;102390.02;;;0.45;69.86
56681;BME280;42558;52.388;13.390;2023-01-28T11:34:34;102385.67;;;0.49;69.39
56681;BME280;42558;52.388;13.390;2023-01-28T11:37:13;102385.63;;;0.50;69.78
56681;BME280;42558;52.388;13.390;2023-01-28T11:39:46;102384.56;;;0.52;70.01
56681;BME280;42558;52.388;13.390;2023-01-28T11:42:21;102387.88;;;0.57;70.75
56681;BME280;42558;52.388;13.390;2023-01-28T11:44:52;102384.67;;;0.54;69.69
56681;BME280;42558;52.388;13.390;2023-01-28T11:48:02;102382.34;;;0.57;69.64
56681;BME280;42558;52.388;13.390;2023-01-28T11:50:45;102376.52;;;0.58;70.67
56681;BME280;42558;52.388;13.390;2023-01-28T11:53:56;102375.63;;;0.64;70.58
56681;BME280;42558;52.388;13.390;2023-01-28T11:57:01;102370.58;;;0.63;70.64
56681;BME280;42558;52.388;13.390;2023-01-28T12:08:19;102364.94;;;0.60;71.14
56681;BME280;42558;52.388;13.390;2023-01-28T12:11:27;102365.97;;;0.47;72.87
56681;BME280;42558;52.388;13.390;2023-01-28T12:26:04;102360.05;;;0.42;75.99
56681;BME280;42558;52.388;13.390;2023-01-28T12:32:23;102355.19;;;0.57;75.50
56681;BME280;42558;52.388;13.390;2023-01-28T12:38:07;102362.48;;;0.58;75.32
56681;BME280;42558;52.388;13.390;2023-01-28T12:41:23;102360.94;;;0.55;75.41
56681;BME280;42558;52.388;13.390;2023-01-28T12:44:01;102357.23;;;0.63;76.03
56681;BME280;42558;52.388;13.390;2023-01-28T12:46:57;102356.94;;;0.70;75.20
56681;BME280;42558;52.388;13.390;2023-01-28T12:49:45;102360.98;;;0.71;75.17
56681;BME280;42558;52.388;13.390;2023-01-28T12:52:34;102352.94;;;0.66;75.01
56681;BME280;42558;52.388;13.390;2023-01-28T12:55:16;102348.84;;;0.73;75.38
56681;BME280;42558;52.388;13.390;2023-01-28T12:57:49;102350.61;;;0.73;76.02
56681;BME280;42558;52.388;13.390;2023-01-28T13:00:34;102352.70;;;0.61;76.01
56681;BME280;42558;52.388;13.390;2023-01-28T13:03:16;102347.33;;;0.45;75.53
56681;BME280;42558;52.388;13.390;2023-01-28T13:05:52;102346.89;;;0.53;76.22
56681;BME280;42558;52.388;13.390;2023-01-28T13:08:27;102347.67;;;0.56;76.60
56681;BME280;42558;52.388;13.390;2023-01-28T13:11:00;102344.99;;;0.48;76.65
56681;BME280;42558;52.388;13.390;2023-01-28T13:13:35;102342.70;;;0.54;78.20
56681;BME280;42558;52.388;13.390;2023-01-28T13:16:09;102343.09;;;0.64;79.36
56681;BME280;42558;52.388;13.390;2023-01-28T13:24:03;102337.44;;;0.60;82.44
56681;BME280;42558;52.388;13.390;2023-01-28T13:26:55;102328.27;;;0.56;81.07
56681;BME280;42558;52.388;13.390;2023-01-28T13:31:57;102312.89;;;0.65;80.29
56681;BME280;42558;52.388;13.390;2023-01-28T13:35:00;102314.25;;;0.60;80.49
56681;BME280;42558;52.388;13.390;2023-01-28T13:37:44;102318.25;;;0.58;80.95
56681;BME280;42558;52.388;13.390;2023-01-28T13:42:43;102315.71;;;0.52;78.94
56681;BME280;42558;52.388;13.390;2023-01-28T13:47:52;102310.46;;;0.56;79.36
56681;BME280;42558;52.388;13.390;2023-01-28T13:50:31;102305.72;;;0.49;77.98
56681;BME280;42558;52.388;13.390;2023-01-28T13:53:18;102307.59;;;0.37;77.57
56681;BME280;42558;52.388;13.390;2023-01-28T13:55:52;102308.48;;;0.31;78.27
56681;BME280;42558;52.388;13.390;2023-01-28T14:02:02;102306.18;;;0.46;77.93
56681;BME280;42558;52.388;13.390;2023-01-28T14:17:11;102298.48;;;0.58;75.14
56681;BME280;42558;52.388;13.390;2023-01-28T14:19:47;102296.52;;;0.38;74.57
56681;BME280;42558;52.388;13.390;2023-01-28T14:22:20;102304.80;;;0.26;74.42
56681;BME280;42558;52.388;13.390;2023-01-28T14:24:50;102301.67;;;0.24;74.75
56681;BME280;42558;52.388;13.390;2023-01-28T14:27:30;102295.95;;;0.28;74.88
56681;BME280;42558;52.388;13.390;2023-01-28T14:32:48;102277.53;;;0.46;76.52
56681;BME280;42558;52.388;13.390;2023-01-28T14:35:31;102273.89;;;0.53;76.36
56681;BME280;42558;52.388;13.390;2023-01-28T14:38:13;102278.48;;;0.54;74.72
56681;BME280;42558;52.388;13.390;2023-01-28T14:40:44;102278.02;;;0.60;73.55
56681;BME280;42558;52.388;13.390;2023-01-28T14:43:23;102271.80;;;0.57;71.41
56681;BME280;42558;52.388;13.390;2023-01-28T14:46:26;102283.21;;;0.62;72.16
56681;BME280;42558;52.388;13.390;2023-01-28T15:00:13;102308.57;;;0.37;76.23
56681;BME280;42558;52.388;13.390;2023-01-28T15:02:45;102307.77;;;0.33;76.47
56681;BME280;42558;52.388;13.390;2023-01-28T15:05:19;102303.73;;;0.32;76.48
56681;BME280;42558;52.388;13.390;2023-01-28T15:07:50;102309.49;;;0.33;76.90